Time;durP1;ratioP1;P1;durP2;ratioP2;P2;SDS_P1;SDS_P2;PMS_P1;PMS_P2;Temp;Humidity;BMP_temperature;BMP_pressure;BME280_temperature;BME280_humidity;BME280_pressure;Samples;Min_cycle;Max_cycle;Signal;HPM_P1;HPM_P2
2023/05/21 00:01:35;;;;;;;2.88;1.58;;;;;;;;;;5024235;28;20058;-72
2023/05/21 00:04:05;;;;;;;2.65;1.70;;;;;;;;;;5027501;28;20457;-73
2023/05/21 00:06:34;;;;;;;2.33;1.42;;;;;;;;;;5031467;28;20052;-73
2023/05/21 00:09:03;;;;;;;5.18;1.58;;;;;;;;;;5011775;28;20145;-74
2023/05/21 00:11:31;;;;;;;5.10;1.40;;;;;;;;;;5027423;28;20131;-74
2023/05/21 00:13:59;;;;;;;3.88;1.67;;;;;;;;;;5030488;28;20495;-73
2023/05/21 00:16:28;;;;;;;5.88;2.10;;;;;;;;;;5031811;28;20053;-72
2023/05/21 00:18:58;;;;;;;3.83;1.63;;;;;;;;;;5031150;28;20052;-73
2023/05/21 00:21:26;;;;;;;1.35;1.00;;;;;;;;;;5029408;28;20053;-73
2023/05/21 00:23:55;;;;;;;3.60;1.73;;;;;;;;;;5031726;28;20049;-73
2023/05/21 00:26:23;;;;;;;5.32;1.95;;;;;;;;;;5021414;28;20533;-72
2023/05/21 00:28:52;;;;;;;2.92;1.80;;;;;;;;;;5029474;28;20056;-72
2023/05/21 00:31:20;;;;;;;3.60;1.42;;;;;;;;;;5018338;28;20077;-72
2023/05/21 00:33:49;;;;;;;4.25;1.95;;;;;;;;;;5025364;28;20065;-73
2023/05/21 00:36:22;;;;;;;3.05;1.52;;;;;;;;;;5021574;28;20080;-73
2023/05/21 00:38:51;;;;;;;3.45;1.38;;;;;;;;;;5030389;28;20041;-73
2023/05/21 00:41:21;;;;;;;1.70;1.42;;;;;;;;;;5028426;28;20094;-72
2023/05/21 00:43:49;;;;;;;3.53;1.58;;;;;;;;;;5018263;28;20053;-73
2023/05/21 00:46:19;;;;;;;4.88;1.35;;;;;;;;;;5027500;28;20049;-72
2023/05/21 00:48:48;;;;;;;3.97;2.25;;;;;;;;;;5022231;28;20132;-72
2023/05/21 00:51:17;;;;;;;3.17;1.60;;;;;;;;;;5022649;28;20046;-72
2023/05/21 00:53:47;;;;;;;2.10;1.20;;;;;;;;;;5026714;28;20053;-72
2023/05/21 00:56:15;;;;;;;2.60;1.80;;;;;;;;;;5020080;28;20515;-73
2023/05/21 00:58:44;;;;;;;2.75;1.45;;;;;;;;;;5020189;28;20124;-73
2023/05/21 01:01:14;;;;;;;3.90;1.75;;;;;;;;;;5025547;28;20053;-73
2023/05/21 01:03:43;;;;;;;5.95;1.83;;;;;;;;;;5042695;22;20106;-63
2023/05/21 01:06:13;;;;;;;2.42;1.48;;;;;;;;;;5032364;28;20453;-67
2023/05/21 01:08:42;;;;;;;3.92;1.40;;;;;;;;;;5033690;28;20041;-63
2023/05/21 01:11:13;;;;;;;2.65;1.95;;;;;;;;;;5033090;28;20053;-63
2023/05/21 01:13:42;;;;;;;3.55;1.63;;;;;;;;;;5032886;28;20133;-62
2023/05/21 01:16:12;;;;;;;3.85;1.52;;;;;;;;;;5032555;28;20046;-63
2023/05/21 01:18:43;;;;;;;1.80;1.27;;;;;;;;;;5032668;28;20045;-65
2023/05/21 01:21:12;;;;;;;2.08;1.40;;;;;;;;;;5033385;28;20060;-62
2023/05/21 01:23:42;;;;;;;2.90;1.77;;;;;;;;;;5032635;28;20084;-65
2023/05/21 01:26:11;;;;;;;2.97;2.05;;;;;;;;;;5033658;28;20107;-64
2023/05/21 01:28:41;;;;;;;2.47;1.13;;;;;;;;;;5032756;28;20072;-67
2023/05/21 01:31:15;;;;;;;2.88;1.67;;;;;;;;;;5032754;28;20103;-64
2023/05/21 01:33:48;;;;;;;4.00;2.28;;;;;;;;;;5004597;28;20082;-66
2023/05/21 01:36:20;;;;;;;3.65;1.60;;;;;;;;;;4989863;28;20100;-62
2023/05/21 01:38:56;;;;;;;3.97;1.42;;;;;;;;;;4984595;28;20043;-61
2023/05/21 01:41:26;;;;;;;4.22;1.95;;;;;;;;;;4986925;28;20050;-61
2023/05/21 01:43:55;;;;;;;2.78;1.13;;;;;;;;;;4985940;28;20089;-63
2023/05/21 01:46:27;;;;;;;1.83;1.17;;;;;;;;;;4989421;28;20108;-61
2023/05/21 01:48:56;;;;;;;3.15;1.65;;;;;;;;;;4984744;28;20153;-65
2023/05/21 01:51:25;;;;;;;8.55;1.65;;;;;;;;;;4983480;28;20533;-61
2023/05/21 01:53:55;;;;;;;3.15;1.60;;;;;;;;;;4988039;28;20089;-61
2023/05/21 01:56:24;;;;;;;3.55;1.90;;;;;;;;;;5000229;28;20084;-61
2023/05/21 01:58:55;;;;;;;4.10;1.63;;;;;;;;;;5005745;28;20050;-62
2023/05/21 02:01:23;;;;;;;2.85;1.08;;;;;;;;;;5008107;28;20413;-61
2023/05/21 02:03:52;;;;;;;3.97;2.00;;;;;;;;;;5004943;28;20058;-60
2023/05/21 02:06:21;;;;;;;3.30;1.65;;;;;;;;;;5003891;28;20045;-63
2023/05/21 02:08:49;;;;;;;2.22;1.23;;;;;;;;;;5007567;28;20050;-63
2023/05/21 02:11:19;;;;;;;1.38;1.02;;;;;;;;;;5007603;28;20054;-62
2023/05/21 02:13:47;;;;;;;2.20;1.30;;;;;;;;;;5002620;28;20128;-61
2023/05/21 02:16:16;;;;;;;4.38;1.48;;;;;;;;;;5008756;28;20117;-63
2023/05/21 02:18:45;;;;;;;2.63;1.67;;;;;;;;;;5006915;28;20136;-61
2023/05/21 02:21:13;;;;;;;4.10;1.85;;;;;;;;;;5005228;28;20042;-63
2023/05/21 02:23:42;;;;;;;4.50;1.83;;;;;;;;;;5006672;28;20212;-61
2023/05/21 02:26:10;;;;;;;6.38;1.80;;;;;;;;;;5008031;28;20078;-60
2023/05/21 02:28:40;;;;;;;3.55;1.45;;;;;;;;;;5008083;28;20049;-60
2023/05/21 02:31:08;;;;;;;1.95;1.52;;;;;;;;;;5011611;28;20058;-61
2023/05/21 02:33:37;;;;;;;4.47;1.63;;;;;;;;;;5010654;28;20046;-62
2023/05/21 02:36:11;;;;;;;6.25;1.90;;;;;;;;;;5008590;28;20104;-61
2023/05/21 02:38:42;;;;;;;3.13;1.58;;;;;;;;;;5005588;28;20054;-64
2023/05/21 02:41:11;;;;;;;4.13;2.47;;;;;;;;;;5001675;28;20050;-62
2023/05/21 02:43:40;;;;;;;2.03;1.30;;;;;;;;;;5008865;28;20046;-62
2023/05/21 02:46:09;;;;;;;2.40;1.25;;;;;;;;;;4999795;28;20046;-61
2023/05/21 02:48:40;;;;;;;1.80;1.17;;;;;;;;;;5009784;28;20770;-61
2023/05/21 02:51:11;;;;;;;3.55;1.67;;;;;;;;;;5002807;28;20109;-60
2023/05/21 02:53:39;;;;;;;4.72;2.03;;;;;;;;;;5007715;28;20066;-63
2023/05/21 02:56:08;;;;;;;7.03;2.45;;;;;;;;;;5007803;28;20050;-60
2023/05/21 02:58:36;;;;;;;4.45;1.73;;;;;;;;;;5004427;28;20050;-62
2023/05/21 03:01:06;;;;;;;4.57;1.40;;;;;;;;;;5008401;28;20351;-67
2023/05/21 03:03:34;;;;;;;3.28;1.48;;;;;;;;;;5003799;28;20058;-63
2023/05/21 03:06:03;;;;;;;1.55;1.02;;;;;;;;;;5008890;28;20073;-62
2023/05/21 03:08:31;;;;;;;3.00;1.63;;;;;;;;;;5011364;28;20045;-63
2023/05/21 03:11:00;;;;;;;5.30;2.15;;;;;;;;;;5006849;28;20045;-61
2023/05/21 03:13:28;;;;;;;2.00;1.33;;;;;;;;;;5005387;28;20133;-61
2023/05/21 03:15:56;;;;;;;3.17;1.40;;;;;;;;;;5009771;28;20520;-61
2023/05/21 03:18:26;;;;;;;3.78;1.70;;;;;;;;;;5011376;28;20050;-61
2023/05/21 03:20:54;;;;;;;3.15;1.98;;;;;;;;;;5001542;28;20129;-63
2023/05/21 03:23:23;;;;;;;3.03;1.27;;;;;;;;;;5008287;28;20046;-63
2023/05/21 03:25:51;;;;;;;2.72;1.65;;;;;;;;;;4993543;28;20089;-61
2023/05/21 03:28:19;;;;;;;3.20;1.58;;;;;;;;;;5002382;28;20151;-63
2023/05/21 03:30:48;;;;;;;3.20;1.73;;;;;;;;;;5010207;28;20081;-61
2023/05/21 03:33:17;;;;;;;2.53;1.33;;;;;;;;;;5007361;28;20554;-61
2023/05/21 03:35:47;;;;;;;3.38;1.75;;;;;;;;;;5007865;28;20411;-62
2023/05/21 03:38:15;;;;;;;3.65;1.48;;;;;;;;;;5011546;28;20415;-61
2023/05/21 03:40:43;;;;;;;3.33;1.60;;;;;;;;;;5006481;28;20100;-61
2023/05/21 03:43:12;;;;;;;4.43;2.33;;;;;;;;;;5003870;28;20108;-62
2023/05/21 03:45:40;;;;;;;4.22;1.60;;;;;;;;;;5008461;28;20054;-62
2023/05/21 03:48:11;;;;;;;2.33;1.48;;;;;;;;;;5011161;28;20518;-62
2023/05/21 03:50:40;;;;;;;2.83;1.38;;;;;;;;;;5009530;28;20200;-61
2023/05/21 03:53:10;;;;;;;3.67;1.45;;;;;;;;;;5009406;28;20438;-61
2023/05/21 03:55:38;;;;;;;2.60;1.38;;;;;;;;;;5007021;28;20046;-61
2023/05/21 03:58:06;;;;;;;4.82;1.70;;;;;;;;;;5006648;28;20081;-61
2023/05/21 04:00:36;;;;;;;6.05;1.52;;;;;;;;;;5007429;28;20050;-61
2023/05/21 04:03:05;;;;;;;2.47;1.48;;;;;;;;;;5007659;28;20128;-62
2023/05/21 04:05:34;;;;;;;2.70;1.15;;;;;;;;;;5004613;28;20088;-64
2023/05/21 04:08:03;;;;;;;5.35;1.80;;;;;;;;;;5005670;28;20125;-62
2023/05/21 04:10:33;;;;;;;4.18;1.27;;;;;;;;;;5006139;28;20042;-64
2023/05/21 04:13:01;;;;;;;5.68;1.95;;;;;;;;;;5008535;28;20042;-63
2023/05/21 04:15:29;;;;;;;2.38;1.40;;;;;;;;;;5004471;28;20112;-61
2023/05/21 04:17:59;;;;;;;3.70;1.33;;;;;;;;;;5010131;28;20765;-61
2023/05/21 04:20:27;;;;;;;3.72;1.65;;;;;;;;;;5008596;28;20042;-61
2023/05/21 04:22:55;;;;;;;2.25;1.20;;;;;;;;;;5008525;28;20050;-63
2023/05/21 04:25:24;;;;;;;3.38;1.90;;;;;;;;;;5005634;28;20108;-65
2023/05/21 04:27:53;;;;;;;4.78;2.03;;;;;;;;;;5002454;28;20053;-62
2023/05/21 04:30:22;;;;;;;3.35;1.40;;;;;;;;;;5007326;28;20054;-63
2023/05/21 04:32:51;;;;;;;3.40;1.50;;;;;;;;;;5008073;28;20096;-61
2023/05/21 04:35:20;;;;;;;2.65;1.13;;;;;;;;;;5004499;28;20069;-62
2023/05/21 04:37:48;;;;;;;3.38;1.75;;;;;;;;;;5008689;28;20089;-62
2023/05/21 04:40:23;;;;;;;4.63;1.75;;;;;;;;;;5004403;28;20042;-61
2023/05/21 04:42:51;;;;;;;2.63;1.65;;;;;;;;;;5003002;28;20049;-62
2023/05/21 04:45:23;;;;;;;7.03;1.35;;;;;;;;;;5004748;28;20088;-62
2023/05/21 04:47:51;;;;;;;2.70;1.35;;;;;;;;;;5008310;28;20042;-64
2023/05/21 04:50:20;;;;;;;4.35;2.00;;;;;;;;;;5008442;28;20062;-63
2023/05/21 04:52:48;;;;;;;2.08;1.27;;;;;;;;;;5005795;28;20076;-61
2023/05/21 04:55:17;;;;;;;4.10;2.38;;;;;;;;;;5008832;28;20057;-62
2023/05/21 04:57:46;;;;;;;3.45;1.55;;;;;;;;;;5007263;28;20108;-62
2023/05/21 05:00:15;;;;;;;2.78;1.70;;;;;;;;;;5003994;28;20136;-63
2023/05/21 05:02:45;;;;;;;6.20;1.45;;;;;;;;;;5004250;28;20089;-64
2023/05/21 05:05:13;;;;;;;3.47;1.75;;;;;;;;;;5005841;28;20050;-63
2023/05/21 05:07:42;;;;;;;4.05;1.65;;;;;;;;;;5008038;28;20046;-62
2023/05/21 05:10:10;;;;;;;4.63;1.80;;;;;;;;;;5009192;28;20038;-62
2023/05/21 05:12:39;;;;;;;7.43;1.98;;;;;;;;;;5001044;28;20047;-62
2023/05/21 05:15:08;;;;;;;2.25;1.42;;;;;;;;;;5003327;28;20144;-62
2023/05/21 05:17:36;;;;;;;2.80;1.70;;;;;;;;;;5007529;28;20046;-66
2023/05/21 05:20:07;;;;;;;2.92;1.70;;;;;;;;;;5006911;28;20054;-62
2023/05/21 05:22:35;;;;;;;3.30;1.60;;;;;;;;;;5009553;28;20050;-64
2023/05/21 05:25:04;;;;;;;4.47;1.50;;;;;;;;;;5004071;28;20066;-62
2023/05/21 05:27:32;;;;;;;4.30;1.45;;;;;;;;;;5004685;28;20081;-62
2023/05/21 05:30:03;;;;;;;5.18;2.22;;;;;;;;;;5007169;28;20050;-62
2023/05/21 05:32:31;;;;;;;5.85;1.48;;;;;;;;;;5008398;28;20081;-64
2023/05/21 05:35:00;;;;;;;2.90;1.63;;;;;;;;;;5003638;28;20049;-61
2023/05/21 05:37:32;;;;;;;4.70;1.27;;;;;;;;;;5010129;28;20046;-62
2023/05/21 05:40:00;;;;;;;4.10;1.52;;;;;;;;;;5006875;28;20074;-63
2023/05/21 05:42:28;;;;;;;6.05;2.05;;;;;;;;;;5004241;28;20108;-61
2023/05/21 05:44:57;;;;;;;4.70;2.05;;;;;;;;;;5005906;28;20128;-66
2023/05/21 05:47:25;;;;;;;1.65;1.02;;;;;;;;;;5004858;28;20062;-61
2023/05/21 05:49:53;;;;;;;2.35;1.65;;;;;;;;;;5001479;28;20050;-63
2023/05/21 05:52:22;;;;;;;3.47;1.05;;;;;;;;;;5008612;28;20078;-61
2023/05/21 05:54:51;;;;;;;3.30;1.35;;;;;;;;;;5007097;28;20108;-61
2023/05/21 05:57:20;;;;;;;1.85;1.17;;;;;;;;;;5007894;28;20116;-63
2023/05/21 05:59:48;;;;;;;3.63;1.90;;;;;;;;;;5002987;28;20590;-62
2023/05/21 06:02:16;;;;;;;2.90;1.48;;;;;;;;;;5006919;28;20053;-64
2023/05/21 06:04:45;;;;;;;2.53;1.10;;;;;;;;;;5008169;28;20084;-65
2023/05/21 06:07:13;;;;;;;2.20;1.33;;;;;;;;;;5006944;28;20077;-63
2023/05/21 06:09:41;;;;;;;4.22;1.17;;;;;;;;;;5006990;28;20070;-62
2023/05/21 06:12:14;;;;;;;4.88;1.98;;;;;;;;;;5011870;28;20560;-64
2023/05/21 06:14:44;;;;;;;1.25;1.10;;;;;;;;;;5010722;28;20050;-63
2023/05/21 06:17:13;;;;;;;3.45;1.48;;;;;;;;;;4992864;28;20053;-62
2023/05/21 06:19:41;;;;;;;4.97;1.42;;;;;;;;;;4985441;28;20046;-62
2023/05/21 06:22:09;;;;;;;2.90;1.50;;;;;;;;;;4989194;28;20043;-63
2023/05/21 06:24:38;;;;;;;2.20;1.52;;;;;;;;;;4992963;28;20106;-61
2023/05/21 06:27:06;;;;;;;5.70;1.58;;;;;;;;;;5003336;28;20329;-64
2023/05/21 06:29:36;;;;;;;2.50;1.52;;;;;;;;;;5003397;28;20430;-63
2023/05/21 06:32:05;;;;;;;2.83;1.67;;;;;;;;;;5005189;28;20081;-63
2023/05/21 06:34:33;;;;;;;4.82;1.33;;;;;;;;;;5000187;28;20050;-62
2023/05/21 06:37:01;;;;;;;4.25;1.60;;;;;;;;;;4987706;28;20133;-62
2023/05/21 06:39:30;;;;;;;4.70;1.58;;;;;;;;;;4987450;28;20125;-63
2023/05/21 06:41:58;;;;;;;2.05;1.20;;;;;;;;;;4981598;28;20177;-63
2023/05/21 06:44:26;;;;;;;6.70;1.83;;;;;;;;;;4984176;28;20054;-63
2023/05/21 06:46:56;;;;;;;2.30;1.25;;;;;;;;;;4987201;28;20136;-63
2023/05/21 06:49:25;;;;;;;4.75;2.15;;;;;;;;;;4983971;28;20502;-64
2023/05/21 06:51:53;;;;;;;3.15;1.52;;;;;;;;;;4986383;28;20062;-65
2023/05/21 06:54:22;;;;;;;5.18;2.58;;;;;;;;;;4984449;28;20391;-65
2023/05/21 06:56:53;;;;;;;3.60;1.60;;;;;;;;;;5002009;28;20042;-63
2023/05/21 06:59:21;;;;;;;6.88;1.60;;;;;;;;;;5004789;28;20519;-62
2023/05/21 07:01:50;;;;;;;2.03;1.52;;;;;;;;;;5008139;28;20054;-65
2023/05/21 07:04:19;;;;;;;4.20;1.45;;;;;;;;;;5005457;28;20085;-62
2023/05/21 07:06:48;;;;;;;3.20;1.80;;;;;;;;;;5005482;28;20156;-64
2023/05/21 07:09:17;;;;;;;3.78;1.48;;;;;;;;;;5000428;28;20181;-65
2023/05/21 07:11:45;;;;;;;4.88;2.00;;;;;;;;;;5000233;28;20331;-63
2023/05/21 07:14:13;;;;;;;2.78;1.23;;;;;;;;;;5002989;28;20053;-65
2023/05/21 07:16:42;;;;;;;2.45;1.30;;;;;;;;;;5002858;28;20069;-64
2023/05/21 07:19:10;;;;;;;3.03;1.52;;;;;;;;;;5003446;28;20550;-64
2023/05/21 07:21:40;;;;;;;3.70;1.75;;;;;;;;;;5005777;28;20141;-69
2023/05/21 07:24:08;;;;;;;4.05;1.55;;;;;;;;;;4999999;28;20736;-62
2023/05/21 07:26:37;;;;;;;3.63;1.85;;;;;;;;;;5003191;28;20659;-63
2023/05/21 07:29:05;;;;;;;3.45;2.05;;;;;;;;;;5003341;28;20081;-66
2023/05/21 07:31:33;;;;;;;3.25;1.48;;;;;;;;;;5000801;28;20053;-67
2023/05/21 07:34:02;;;;;;;3.15;1.83;;;;;;;;;;5004326;28;20128;-66
2023/05/21 07:36:32;;;;;;;2.92;1.67;;;;;;;;;;5008466;28;20465;-61
2023/05/21 07:39:02;;;;;;;3.17;1.55;;;;;;;;;;5007266;28;20085;-64
2023/05/21 07:41:31;;;;;;;2.55;1.27;;;;;;;;;;5002861;28;20135;-64
2023/05/21 07:44:01;;;;;;;2.75;1.60;;;;;;;;;;5007451;28;20153;-64
2023/05/21 07:46:29;;;;;;;2.42;1.30;;;;;;;;;;5006529;28;20272;-62
2023/05/21 07:48:57;;;;;;;4.88;2.03;;;;;;;;;;5007877;28;20060;-66
2023/05/21 07:51:26;;;;;;;3.03;1.90;;;;;;;;;;5007084;28;20085;-65
2023/05/21 07:53:55;;;;;;;2.47;1.42;;;;;;;;;;5002113;28;20050;-65
2023/05/21 07:56:25;;;;;;;2.85;1.48;;;;;;;;;;5003560;28;20053;-61
2023/05/21 07:58:53;;;;;;;4.25;2.35;;;;;;;;;;5008362;28;20383;-62
2023/05/21 08:01:22;;;;;;;3.22;1.45;;;;;;;;;;5005550;28;20282;-61
2023/05/21 08:03:51;;;;;;;2.60;1.65;;;;;;;;;;5002545;28;20151;-65
2023/05/21 08:06:21;;;;;;;3.67;1.83;;;;;;;;;;5002792;28;20400;-64
2023/05/21 08:08:49;;;;;;;2.55;1.30;;;;;;;;;;5001518;28;20533;-66
2023/05/21 08:11:18;;;;;;;2.90;1.48;;;;;;;;;;4999270;28;20495;-63
2023/05/21 08:13:47;;;;;;;3.47;1.77;;;;;;;;;;5000821;28;20057;-61
2023/05/21 08:16:16;;;;;;;5.18;2.00;;;;;;;;;;5007341;28;20077;-65
2023/05/21 08:18:45;;;;;;;2.05;1.83;;;;;;;;;;5006958;28;20152;-63
2023/05/21 08:21:13;;;;;;;3.63;1.45;;;;;;;;;;5003871;28;20050;-62
2023/05/21 08:23:41;;;;;;;4.38;1.80;;;;;;;;;;5009312;28;20133;-62
2023/05/21 08:26:10;;;;;;;5.63;1.50;;;;;;;;;;4990398;28;20463;-61
2023/05/21 08:28:39;;;;;;;3.33;1.55;;;;;;;;;;4983992;28;20050;-62
2023/05/21 08:31:09;;;;;;;4.70;1.92;;;;;;;;;;4991589;28;20046;-62
2023/05/21 08:33:38;;;;;;;5.85;1.90;;;;;;;;;;4988165;28;20518;-63
2023/05/21 08:36:07;;;;;;;3.95;1.45;;;;;;;;;;5000991;28;20466;-63
2023/05/21 08:38:36;;;;;;;3.38;2.05;;;;;;;;;;5010048;28;20104;-61
2023/05/21 08:41:07;;;;;;;3.30;1.73;;;;;;;;;;5005825;28;20070;-62
2023/05/21 08:43:37;;;;;;;5.13;2.20;;;;;;;;;;5008195;28;20042;-62
2023/05/21 08:46:06;;;;;;;3.83;1.50;;;;;;;;;;4995566;28;20459;-63
2023/05/21 08:48:37;;;;;;;3.05;1.35;;;;;;;;;;4990118;28;20043;-63
2023/05/21 08:51:06;;;;;;;3.17;1.65;;;;;;;;;;4989623;28;20053;-62
2023/05/21 08:53:34;;;;;;;2.70;1.58;;;;;;;;;;4990940;28;20105;-62
2023/05/21 08:56:03;;;;;;;3.67;1.58;;;;;;;;;;4994344;28;20069;-64
2023/05/21 08:58:33;;;;;;;4.43;1.50;;;;;;;;;;5010012;28;20054;-64
2023/05/21 09:01:03;;;;;;;3.60;1.75;;;;;;;;;;5009642;28;20042;-62
2023/05/21 09:03:32;;;;;;;3.72;1.92;;;;;;;;;;5009137;28;20534;-61
2023/05/21 09:06:01;;;;;;;1.75;1.30;;;;;;;;;;4999908;28;20129;-63
2023/05/21 09:08:32;;;;;;;3.58;1.75;;;;;;;;;;4987900;28;20192;-63
2023/05/21 09:11:01;;;;;;;2.92;1.73;;;;;;;;;;4988368;28;20046;-62
2023/05/21 09:13:32;;;;;;;4.75;1.77;;;;;;;;;;4990479;28;20081;-64
2023/05/21 09:16:00;;;;;;;2.75;1.70;;;;;;;;;;4998192;28;20073;-62
2023/05/21 09:18:29;;;;;;;2.47;1.27;;;;;;;;;;5010601;28;20076;-61
2023/05/21 09:20:57;;;;;;;8.00;1.65;;;;;;;;;;5010107;28;20112;-62
2023/05/21 09:23:29;;;;;;;4.28;1.88;;;;;;;;;;5009950;28;20060;-64
2023/05/21 09:25:57;;;;;;;3.80;1.65;;;;;;;;;;4996372;28;20478;-63
2023/05/21 09:28:26;;;;;;;3.15;1.85;;;;;;;;;;5004633;28;20050;-62
2023/05/21 09:30:54;;;;;;;3.38;1.80;;;;;;;;;;5007929;28;20155;-62
2023/05/21 09:33:26;;;;;;;4.65;2.40;;;;;;;;;;5007911;28;20125;-64
2023/05/21 09:35:54;;;;;;;3.30;1.63;;;;;;;;;;5008876;28;20066;-63
2023/05/21 09:38:23;;;;;;;3.10;1.45;;;;;;;;;;5012843;28;20104;-63
2023/05/21 09:40:55;;;;;;;4.28;2.28;;;;;;;;;;5013571;28;20053;-62
2023/05/21 09:43:24;;;;;;;4.00;1.90;;;;;;;;;;5013485;28;20593;-62
2023/05/21 09:45:53;;;;;;;3.50;1.52;;;;;;;;;;5013662;28;20078;-62
2023/05/21 09:48:33;;;;;;;3.58;1.63;;;;;;;;;;5012546;28;20085;-63
2023/05/21 09:51:15;;;;;;;7.32;2.22;;;;;;;;;;5009702;28;20510;-63
2023/05/21 09:53:44;;;;;;;1.85;1.50;;;;;;;;;;5008326;28;20496;-63
2023/05/21 09:56:14;;;;;;;3.20;1.90;;;;;;;;;;5009481;28;20558;-64
2023/05/21 09:58:42;;;;;;;3.25;1.83;;;;;;;;;;5009888;28;20073;-65
2023/05/21 10:01:11;;;;;;;4.82;2.03;;;;;;;;;;5005773;28;20045;-68
2023/05/21 10:03:40;;;;;;;6.68;2.45;;;;;;;;;;5009145;28;20058;-63
2023/05/21 10:06:10;;;;;;;1.92;1.45;;;;;;;;;;5006549;28;20054;-63
2023/05/21 10:08:41;;;;;;;4.00;2.15;;;;;;;;;;5008383;28;20054;-63
2023/05/21 10:11:10;;;;;;;2.53;1.67;;;;;;;;;;5010039;28;20046;-65
2023/05/21 10:13:42;;;;;;;3.83;1.55;;;;;;;;;;5000935;28;20093;-64
2023/05/21 10:16:11;;;;;;;3.05;1.60;;;;;;;;;;5011866;28;20491;-64
2023/05/21 10:18:40;;;;;;;4.43;1.80;;;;;;;;;;5008846;28;20049;-64
2023/05/21 10:21:09;;;;;;;3.60;2.03;;;;;;;;;;5013386;28;20092;-64
2023/05/21 10:23:38;;;;;;;3.25;1.75;;;;;;;;;;5007171;28;20049;-65
2023/05/21 10:26:07;;;;;;;2.75;2.03;;;;;;;;;;5004869;28;20149;-64
2023/05/21 10:28:36;;;;;;;4.32;1.70;;;;;;;;;;5013304;28;20046;-64
2023/05/21 10:31:07;;;;;;;8.85;2.15;;;;;;;;;;5013523;28;20046;-64
2023/05/21 10:33:36;;;;;;;2.63;1.55;;;;;;;;;;5012482;28;20090;-67
2023/05/21 10:36:05;;;;;;;4.10;2.33;;;;;;;;;;5000587;28;20054;-64
2023/05/21 10:38:34;;;;;;;3.78;1.52;;;;;;;;;;4991329;28;20093;-63
2023/05/21 10:41:05;;;;;;;3.75;2.33;;;;;;;;;;4992245;28;20093;-65
2023/05/21 10:43:44;;;;;;;6.28;1.90;;;;;;;;;;4991149;28;20050;-63
2023/05/21 10:46:30;;;;;;;2.90;1.75;;;;;;;;;;4998311;28;20046;-65
2023/05/21 10:49:06;;;;;;;4.13;2.15;;;;;;;;;;4981352;28;20333;-63
2023/05/21 10:51:39;;;;;;;3.53;1.70;;;;;;;;;;5001285;28;20116;-65
2023/05/21 10:54:28;;;;;;;3.88;1.80;;;;;;;;;;5010046;28;20525;-62
2023/05/21 10:57:01;;;;;;;1.83;1.20;;;;;;;;;;5001483;28;20038;-63
2023/05/21 10:59:35;;;;;;;1.92;1.20;;;;;;;;;;5004590;28;20553;-63
2023/05/21 11:02:04;;;;;;;2.28;1.65;;;;;;;;;;5012743;28;20046;-66
2023/05/21 11:04:38;;;;;;;2.20;1.38;;;;;;;;;;5008152;28;20073;-64
2023/05/21 11:07:07;;;;;;;2.63;1.65;;;;;;;;;;5008621;28;20502;-66
2023/05/21 11:09:35;;;;;;;3.10;1.88;;;;;;;;;;5009696;28;20053;-64
2023/05/21 11:12:04;;;;;;;3.53;1.80;;;;;;;;;;5004194;28;20058;-66
2023/05/21 11:14:37;;;;;;;3.03;1.65;;;;;;;;;;5008536;28;20054;-64
2023/05/21 11:17:11;;;;;;;2.83;1.57;;;;;;;;;;5008688;28;20503;-66
2023/05/21 11:19:42;;;;;;;3.58;1.85;;;;;;;;;;5006352;28;20050;-64
2023/05/21 11:22:11;;;;;;;2.65;1.63;;;;;;;;;;5003215;28;20042;-63
2023/05/21 11:24:41;;;;;;;3.85;1.65;;;;;;;;;;5009705;28;20096;-63
2023/05/21 11:27:11;;;;;;;3.95;1.70;;;;;;;;;;5004436;28;20148;-66
2023/05/21 11:29:40;;;;;;;3.28;1.58;;;;;;;;;;5008043;28;20042;-62
2023/05/21 11:32:09;;;;;;;2.35;1.23;;;;;;;;;;5009187;28;20065;-65
2023/05/21 11:34:38;;;;;;;3.83;1.67;;;;;;;;;;5008688;28;20116;-63
2023/05/21 11:37:28;;;;;;;2.83;1.40;;;;;;;;;;5007145;28;20136;-65
2023/05/21 11:39:58;;;;;;;3.95;1.70;;;;;;;;;;5009595;28;20056;-64
2023/05/21 11:42:30;;;;;;;10.60;2.17;;;;;;;;;;5000083;28;20111;-66
2023/05/21 11:44:59;;;;;;;3.22;1.73;;;;;;;;;;5003830;28;20069;-64
2023/05/21 11:47:28;;;;;;;3.20;1.40;;;;;;;;;;5004972;28;20053;-64
2023/05/21 11:49:56;;;;;;;3.97;1.70;;;;;;;;;;5008221;28;20056;-64
2023/05/21 11:52:26;;;;;;;4.55;1.60;;;;;;;;;;5008793;28;20333;-67
2023/05/21 11:54:55;;;;;;;3.28;1.67;;;;;;;;;;5008365;28;20108;-63
2023/05/21 11:57:29;;;;;;;4.25;2.00;;;;;;;;;;5002413;28;20058;-66
2023/05/21 11:59:58;;;;;;;3.60;1.75;;;;;;;;;;5007330;28;20049;-65
2023/05/21 12:02:28;;;;;;;3.00;1.65;;;;;;;;;;5001845;28;20053;-66
2023/05/21 12:04:58;;;;;;;4.82;2.00;;;;;;;;;;5004598;28;20152;-64
2023/05/21 12:07:29;;;;;;;2.78;1.95;;;;;;;;;;5006171;28;20086;-65
2023/05/21 12:09:58;;;;;;;2.63;1.48;;;;;;;;;;5008395;28;20068;-63
2023/05/21 12:12:27;;;;;;;2.78;1.65;;;;;;;;;;5000847;28;20046;-63
2023/05/21 12:15:13;;;;;;;4.22;1.30;;;;;;;;;;4999030;28;20046;-65
2023/05/21 12:17:42;;;;;;;1.88;1.30;;;;;;;;;;5002509;28;20578;-63
2023/05/21 12:20:15;;;;;;;8.52;1.88;;;;;;;;;;5008583;28;20061;-63
2023/05/21 12:22:45;;;;;;;4.90;1.30;;;;;;;;;;5003582;28;20080;-68
2023/05/21 12:25:14;;;;;;;2.47;1.77;;;;;;;;;;5002197;28;20289;-64
2023/05/21 12:27:43;;;;;;;2.55;1.63;;;;;;;;;;5005998;28;20101;-64
2023/05/21 12:30:12;;;;;;;2.88;1.67;;;;;;;;;;5007333;28;20042;-64
2023/05/21 12:32:43;;;;;;;3.92;1.77;;;;;;;;;;5008035;28;20580;-63
2023/05/21 12:35:21;;;;;;;2.05;1.48;;;;;;;;;;5006463;28;20060;-63
2023/05/21 12:37:51;;;;;;;2.78;1.40;;;;;;;;;;5004613;28;20471;-63
2023/05/21 12:40:20;;;;;;;2.80;1.70;;;;;;;;;;5007304;28;20042;-67
2023/05/21 12:42:50;;;;;;;2.65;1.50;;;;;;;;;;4995972;28;20050;-64
2023/05/21 12:45:21;;;;;;;3.90;1.85;;;;;;;;;;4998000;28;20045;-66
2023/05/21 12:47:54;;;;;;;3.33;1.88;;;;;;;;;;5008004;28;20132;-66
2023/05/21 12:50:24;;;;;;;3.42;1.63;;;;;;;;;;5007259;28;20054;-64
2023/05/21 12:52:56;;;;;;;1.60;0.98;;;;;;;;;;5007195;28;20514;-63
2023/05/21 12:55:26;;;;;;;;;;;;;;;;;;4997387;28;20103;-66
2023/05/21 12:58:03;;;;;;;2.85;1.65;;;;;;;;;;5003475;28;19976;-66
2023/05/21 13:00:32;;;;;;;2.97;1.30;;;;;;;;;;5002256;28;20049;-65
2023/05/21 13:03:03;;;;;;;2.47;1.33;;;;;;;;;;5007614;28;20053;-64
2023/05/21 13:05:31;;;;;;;1.48;1.20;;;;;;;;;;5000904;28;20050;-64
2023/05/21 13:08:01;;;;;;;4.00;1.52;;;;;;;;;;5006397;28;20049;-65
2023/05/21 13:10:30;;;;;;;3.60;1.58;;;;;;;;;;5008019;28;20600;-65
2023/05/21 13:12:58;;;;;;;2.80;1.98;;;;;;;;;;5006306;28;20054;-65
2023/05/21 13:15:26;;;;;;;3.20;1.77;;;;;;;;;;5003301;28;20498;-67
2023/05/21 13:17:55;;;;;;;2.10;1.35;;;;;;;;;;5007804;28;20124;-65
2023/05/21 13:20:26;;;;;;;1.95;1.50;;;;;;;;;;5007615;28;20141;-64
2023/05/21 13:22:54;;;;;;;2.67;1.75;;;;;;;;;;5007881;28;20069;-65
2023/05/21 13:25:27;;;;;;;3.13;1.58;;;;;;;;;;4992123;28;20053;-63
2023/05/21 13:27:56;;;;;;;3.28;1.50;;;;;;;;;;4997783;28;20046;-63
2023/05/21 13:30:24;;;;;;;2.40;1.33;;;;;;;;;;5000769;28;20053;-63
2023/05/21 13:32:53;;;;;;;2.60;1.67;;;;;;;;;;5007994;28;20046;-63
2023/05/21 13:35:21;;;;;;;2.95;1.40;;;;;;;;;;5010074;28;20403;-63
2023/05/21 13:37:50;;;;;;;11.05;2.00;;;;;;;;;;5005710;28;20050;-66
2023/05/21 13:40:18;;;;;;;2.08;1.33;;;;;;;;;;5001610;28;20046;-64
2023/05/21 13:42:49;;;;;;;2.80;1.52;;;;;;;;;;5000378;28;20492;-62
2023/05/21 13:45:18;;;;;;;2.45;1.45;;;;;;;;;;5010599;28;20046;-62
2023/05/21 13:47:46;;;;;;;1.58;1.25;;;;;;;;;;5008960;28;20046;-62
2023/05/21 13:50:16;;;;;;;2.00;1.58;;;;;;;;;;5004365;28;20057;-63
2023/05/21 13:52:44;;;;;;;1.80;1.15;;;;;;;;;;5010092;28;20108;-65
2023/05/21 13:55:14;;;;;;;1.85;1.33;;;;;;;;;;5006268;28;20038;-62
2023/05/21 13:57:43;;;;;;;2.15;1.45;;;;;;;;;;4990871;28;20081;-62
2023/05/21 14:00:14;;;;;;;2.88;1.40;;;;;;;;;;4985510;28;20042;-62
2023/05/21 14:02:43;;;;;;;2.38;1.50;;;;;;;;;;4986697;28;20057;-61
2023/05/21 14:05:12;;;;;;;2.85;1.73;;;;;;;;;;4983167;28;20120;-62
2023/05/21 14:07:40;;;;;;;2.58;1.45;;;;;;;;;;5004387;28;20465;-62
2023/05/21 14:10:09;;;;;;;3.08;1.70;;;;;;;;;;5009922;28;20049;-62
2023/05/21 14:12:39;;;;;;;3.78;2.10;;;;;;;;;;5010221;28;20129;-61
2023/05/21 14:15:08;;;;;;;3.03;1.60;;;;;;;;;;5009249;28;20054;-62
2023/05/21 14:17:39;;;;;;;2.15;1.23;;;;;;;;;;5004379;28;20463;-62
2023/05/21 14:20:08;;;;;;;3.38;1.30;;;;;;;;;;5002279;28;20477;-61
2023/05/21 14:22:37;;;;;;;2.05;1.30;;;;;;;;;;5003961;28;20509;-62
2023/05/21 14:25:05;;;;;;;2.95;1.75;;;;;;;;;;5011469;28;20541;-62
2023/05/21 14:27:36;;;;;;;3.15;1.70;;;;;;;;;;5011175;28;20517;-64
2023/05/21 14:30:05;;;;;;;3.00;1.63;;;;;;;;;;5000140;28;20064;-63
2023/05/21 14:32:33;;;;;;;2.78;1.33;;;;;;;;;;5007154;28;20166;-65
2023/05/21 14:35:03;;;;;;;3.13;1.67;;;;;;;;;;5010569;28;20128;-62
2023/05/21 14:37:32;;;;;;;5.65;1.80;;;;;;;;;;5009941;28;20498;-63
2023/05/21 14:40:00;;;;;;;3.35;1.60;;;;;;;;;;5012733;28;20104;-65
2023/05/21 14:42:28;;;;;;;3.33;1.52;;;;;;;;;;5011088;28;20136;-62
2023/05/21 14:44:58;;;;;;;2.22;1.30;;;;;;;;;;5012812;28;20058;-62
2023/05/21 14:47:26;;;;;;;3.10;1.50;;;;;;;;;;5009458;28;20133;-61
2023/05/21 14:49:54;;;;;;;3.22;1.30;;;;;;;;;;5004567;28;20138;-62
2023/05/21 14:52:24;;;;;;;3.78;1.65;;;;;;;;;;5000501;28;20073;-63
2023/05/21 14:54:52;;;;;;;2.22;1.77;;;;;;;;;;5005785;28;20511;-63
2023/05/21 14:57:21;;;;;;;3.88;1.75;;;;;;;;;;4992629;28;20088;-63